createdAt,value
2022-10-11T00:00:15.748Z,6.30
2022-10-11T00:03:24.665Z,6.12
2022-10-11T00:06:13.781Z,7.07
2022-10-11T00:09:02.800Z,6.70
2022-10-11T00:11:54.669Z,6.50
2022-10-11T00:15:05.710Z,7.35
2022-10-11T00:17:54.259Z,7.33
2022-10-11T00:20:45.319Z,7.33
2022-10-11T00:23:34.756Z,6.67
2022-10-11T00:26:24.776Z,6.73
2022-10-11T00:29:14.386Z,6.40
2022-10-11T00:32:04.786Z,7.10
2022-10-11T00:34:53.577Z,7.13
2022-10-11T00:37:43.032Z,6.23
2022-10-11T00:40:33.638Z,6.67
2022-10-11T00:43:25.489Z,6.47
2022-10-11T00:46:30.874Z,5.77
2022-10-11T00:49:25.668Z,5.73
2022-10-11T00:52:23.740Z,6.50
2022-10-11T00:55:18.636Z,5.60
2022-10-11T00:58:08.539Z,6.10
2022-10-11T01:00:57.436Z,5.67
2022-10-11T01:03:47.159Z,6.13
2022-10-11T01:06:36.117Z,5.40
2022-10-11T01:09:26.880Z,5.63
2022-10-11T01:12:18.997Z,5.13
2022-10-11T01:15:17.259Z,5.60
2022-10-11T01:18:10.773Z,5.73
2022-10-11T01:21:06.543Z,5.30
2022-10-11T01:24:23.574Z,5.30
2022-10-11T01:27:39.897Z,5.27
2022-10-11T01:30:30.397Z,5.90
2022-10-11T01:33:27.878Z,5.67
2022-10-11T01:36:34.472Z,5.70
2022-10-11T01:39:29.975Z,5.50
2022-10-11T01:42:20.615Z,5.00
2022-10-11T01:45:14.123Z,5.57
2022-10-11T01:48:09.795Z,4.97
2022-10-11T01:51:01.929Z,4.70
2022-10-11T01:54:10.453Z,5.20
2022-10-11T01:57:25.584Z,4.90
2022-10-11T02:00:18.830Z,5.10
2022-10-11T02:06:36.333Z,5.47
2022-10-11T02:09:30.412Z,4.80
2022-10-11T02:12:29.158Z,5.47
2022-10-11T02:15:22.144Z,4.90
2022-10-11T02:18:15.764Z,4.73
2022-10-11T02:21:09.922Z,5.17
2022-10-11T02:24:03.412Z,5.10
2022-10-11T02:26:57.161Z,5.40
2022-10-11T02:29:48.718Z,5.00
2022-10-11T02:32:41.756Z,4.80
2022-10-11T02:35:37.696Z,5.13
2022-10-11T02:38:30.196Z,4.30
2022-10-11T02:41:33.029Z,4.97
2022-10-11T02:44:29.560Z,4.80
2022-10-11T02:47:19.747Z,4.87
2022-10-11T02:50:12.406Z,5.07
2022-10-11T02:53:04.223Z,5.10
2022-10-11T02:55:54.823Z,4.37
2022-10-11T02:58:43.779Z,4.87
2022-10-11T03:01:33.404Z,5.40
2022-10-11T03:04:22.315Z,4.60
2022-10-11T03:07:12.091Z,4.53
2022-10-11T03:10:00.646Z,4.80
2022-10-11T03:12:50.650Z,4.30
2022-10-11T03:15:39.176Z,5.23
2022-10-11T03:18:27.642Z,4.67
2022-10-11T03:21:17.255Z,5.03
2022-10-11T03:24:09.625Z,4.57
2022-10-11T03:26:57.901Z,4.87
2022-10-11T03:29:47.043Z,5.03
2022-10-11T03:32:37.437Z,5.70
2022-10-11T03:35:26.399Z,5.40
2022-10-11T03:38:19.246Z,5.43
2022-10-11T03:41:09.846Z,5.10
2022-10-11T03:43:58.994Z,5.60
2022-10-11T03:46:48.418Z,4.70
2022-10-11T03:49:43.249Z,5.00
2022-10-11T03:52:32.647Z,4.80
2022-10-11T03:55:22.049Z,5.37
2022-10-11T03:58:11.776Z,5.53
2022-10-11T04:01:01.425Z,5.17
2022-10-11T04:03:51.407Z,5.70
2022-10-11T04:06:40.513Z,5.57
2022-10-11T04:09:30.089Z,5.37
2022-10-11T04:12:18.845Z,4.40
2022-10-11T04:15:12.959Z,4.70
2022-10-11T04:18:02.498Z,5.17
2022-10-11T04:20:51.689Z,4.73
2022-10-11T04:23:40.391Z,4.77
2022-10-11T04:26:32.978Z,4.13
2022-10-11T04:29:22.025Z,4.77
2022-10-11T04:32:16.960Z,4.50
2022-10-11T04:35:06.602Z,4.37
2022-10-11T04:37:56.070Z,4.27
2022-10-11T04:40:45.240Z,4.93
2022-10-11T04:43:34.196Z,4.70
2022-10-11T04:46:23.773Z,4.50
2022-10-11T04:49:13.344Z,4.83
2022-10-11T04:52:02.710Z,5.10
2022-10-11T04:54:51.674Z,5.23
2022-10-11T04:57:40.427Z,5.35
2022-10-11T05:00:29.393Z,5.13
2022-10-11T05:06:26.966Z,4.97
2022-10-11T05:09:16.129Z,5.57
2022-10-11T05:12:06.525Z,5.50
2022-10-11T05:14:55.484Z,5.00
2022-10-11T05:17:44.897Z,4.93
2022-10-11T05:20:35.221Z,4.83
2022-10-11T05:23:23.754Z,4.77
2022-10-11T05:26:15.871Z,4.80
2022-10-11T05:29:05.604Z,5.20
2022-10-11T05:31:55.199Z,4.27
2022-10-11T05:34:44.344Z,5.90
2022-10-11T05:37:34.326Z,5.33
2022-10-11T05:40:23.492Z,4.83
2022-10-11T05:43:13.066Z,4.23
2022-10-11T05:46:02.782Z,4.47
2022-10-11T05:48:53.239Z,5.03
2022-10-11T05:51:43.332Z,4.43
2022-10-11T05:54:33.615Z,4.40
2022-10-11T05:57:23.427Z,4.33
2022-10-11T06:00:15.644Z,4.90
2022-10-11T06:03:05.705Z,5.55
2022-10-11T06:05:57.366Z,4.47
2022-10-11T06:08:47.270Z,5.23
2022-10-11T06:11:36.998Z,5.67
2022-10-11T06:14:27.801Z,4.40
2022-10-11T06:17:16.348Z,4.97
2022-10-11T06:20:13.967Z,4.10
2022-10-11T06:23:04.605Z,5.05
2022-10-11T06:25:59.448Z,4.10
2022-10-11T06:28:48.951Z,4.77
2022-10-11T06:31:38.555Z,5.50
2022-10-11T06:34:28.403Z,5.40
2022-10-11T06:37:17.950Z,4.70
2022-10-11T06:40:12.591Z,4.60
2022-10-11T06:43:01.826Z,5.50
2022-10-11T06:45:52.163Z,6.10
2022-10-11T06:48:42.961Z,6.30
2022-10-11T06:51:33.654Z,5.47
2022-10-11T06:54:22.727Z,5.83
2022-10-11T06:57:12.711Z,5.37
2022-10-11T07:00:02.897Z,5.20
2022-10-11T07:02:52.275Z,5.73
2022-10-11T07:05:42.146Z,5.47
2022-10-11T07:08:32.004Z,4.77
2022-10-11T07:11:23.447Z,5.87
2022-10-11T07:14:12.204Z,5.83
2022-10-11T07:17:01.933Z,5.13
2022-10-11T07:19:51.560Z,5.60
2022-10-11T07:22:40.757Z,5.33
2022-10-11T07:25:32.137Z,5.15
2022-10-11T07:28:22.496Z,5.53
2022-10-11T07:31:15.256Z,4.70
2022-10-11T07:34:06.123Z,4.17
2022-10-11T07:36:55.755Z,4.23
2022-10-11T07:39:45.741Z,5.00
2022-10-11T07:42:36.542Z,4.33
2022-10-11T07:45:28.485Z,3.80
2022-10-11T07:48:17.354Z,3.95
2022-10-11T07:51:08.573Z,4.40
2022-10-11T07:53:58.018Z,3.47
2022-10-11T07:56:47.079Z,4.27
2022-10-11T07:59:38.279Z,3.57
2022-10-11T08:02:29.136Z,3.77
2022-10-11T08:05:38.032Z,4.10
2022-10-11T08:08:28.731Z,3.50
2022-10-11T08:11:26.716Z,3.80
2022-10-11T08:14:17.793Z,3.33
2022-10-11T08:17:08.894Z,3.60
2022-10-11T08:19:59.141Z,3.93
2022-10-11T08:22:50.731Z,3.90
2022-10-11T08:25:41.979Z,3.63
2022-10-11T08:28:31.783Z,3.57
2022-10-11T08:31:22.179Z,3.77
2022-10-11T08:34:12.979Z,4.33
2022-10-11T08:37:02.615Z,4.07
2022-10-11T08:39:51.447Z,3.90
2022-10-11T08:42:47.796Z,3.80
2022-10-11T08:45:46.782Z,4.03
2022-10-11T08:48:41.782Z,3.53
2022-10-11T08:51:38.538Z,4.33
2022-10-11T08:54:38.075Z,4.50
2022-10-11T08:57:29.488Z,4.27
2022-10-11T09:03:23.070Z,4.10
2022-10-11T09:06:25.423Z,4.30
2022-10-11T09:09:33.828Z,4.80
2022-10-11T09:12:37.161Z,3.97
2022-10-11T09:15:40.819Z,4.03
2022-10-11T09:18:46.614Z,6.07
2022-10-11T09:21:42.322Z,4.70
2022-10-11T09:24:45.812Z,4.13
2022-10-11T09:28:01.740Z,3.87
2022-10-11T09:30:55.479Z,4.67
2022-10-11T09:33:47.473Z,4.73
2022-10-11T09:36:41.865Z,4.23
2022-10-11T09:39:33.409Z,4.27
2022-10-11T09:42:23.188Z,3.90
2022-10-11T09:45:18.073Z,4.13
2022-10-11T09:48:09.128Z,3.93
2022-10-11T09:51:06.642Z,3.70
2022-10-11T09:53:58.400Z,4.00
2022-10-11T09:56:48.251Z,3.37
2022-10-11T09:59:38.258Z,3.80
2022-10-11T10:02:27.808Z,3.57
2022-10-11T10:05:21.143Z,3.57
2022-10-11T10:08:26.424Z,4.10
2022-10-11T10:11:16.896Z,4.00
2022-10-11T10:14:06.494Z,3.70
2022-10-11T10:17:02.991Z,3.70
2022-10-11T10:19:54.952Z,4.03
2022-10-11T10:22:47.800Z,3.80
2022-10-11T10:25:43.289Z,4.35
2022-10-11T10:28:32.746Z,4.13
2022-10-11T10:31:24.686Z,4.30
2022-10-11T10:34:19.550Z,3.77
2022-10-11T10:37:18.403Z,3.80
2022-10-11T10:40:16.595Z,3.57
2022-10-11T10:43:05.326Z,3.43
2022-10-11T10:46:12.427Z,3.87
2022-10-11T10:52:48.742Z,4.30
2022-10-11T10:55:42.334Z,3.70
2022-10-11T10:59:06.087Z,4.30
2022-10-11T11:02:21.409Z,3.30
2022-10-11T11:05:38.449Z,3.90
2022-10-11T11:08:45.023Z,3.80
2022-10-11T11:11:50.345Z,4.10
2022-10-11T11:14:50.588Z,4.00
2022-10-11T11:17:54.904Z,4.23
2022-10-11T11:21:05.086Z,4.43
2022-10-11T11:24:03.756Z,3.70
2022-10-11T11:26:59.892Z,4.13
2022-10-11T11:29:59.479Z,4.43
2022-10-11T11:33:01.968Z,3.60
2022-10-11T11:35:53.958Z,4.13
2022-10-11T11:38:48.857Z,3.45
2022-10-11T11:41:41.645Z,3.70
2022-10-11T11:44:35.628Z,4.10
2022-10-11T11:47:32.777Z,3.63
2022-10-11T11:50:24.651Z,3.50
2022-10-11T11:53:19.826Z,3.50
2022-10-11T11:56:26.040Z,3.63
2022-10-11T11:59:23.024Z,3.70
2022-10-11T12:02:44.957Z,3.10
2022-10-11T12:05:36.853Z,3.47
2022-10-11T12:17:45.462Z,3.93
2022-10-11T12:20:44.053Z,3.30
2022-10-11T12:23:48.817Z,3.93
2022-10-11T12:26:47.236Z,3.53
2022-10-11T12:29:57.620Z,4.03
2022-10-11T12:32:52.157Z,3.57
2022-10-11T12:36:01.481Z,3.40
2022-10-11T12:39:40.073Z,3.07
2022-10-11T12:42:34.218Z,2.77
2022-10-11T12:45:34.373Z,3.00
2022-10-11T12:48:46.157Z,3.97
2022-10-11T12:51:45.588Z,2.93
2022-10-11T12:54:54.024Z,3.63
2022-10-11T12:57:59.978Z,3.40
2022-10-11T13:01:13.749Z,3.13
2022-10-11T13:04:10.111Z,3.80
2022-10-11T13:07:12.210Z,3.47
2022-10-11T13:10:03.624Z,3.85
2022-10-11T13:15:48.304Z,3.20
2022-10-11T13:18:41.639Z,3.27
2022-10-11T13:21:52.134Z,3.60
2022-10-11T13:24:43.453Z,3.57
2022-10-11T13:27:31.675Z,2.90
2022-10-11T13:30:24.975Z,3.43
2022-10-11T13:33:23.077Z,3.57
2022-10-11T13:36:17.384Z,2.90
2022-10-11T13:39:06.165Z,3.23
2022-10-11T13:41:54.427Z,3.90
2022-10-11T13:44:46.355Z,3.17
2022-10-11T13:47:36.448Z,3.40
2022-10-11T13:50:33.350Z,3.67
2022-10-11T13:53:28.276Z,3.47
2022-10-11T13:56:21.546Z,3.77
2022-10-11T13:59:21.388Z,3.73
2022-10-11T14:02:21.749Z,3.33
2022-10-11T14:05:28.272Z,4.07
2022-10-11T14:08:25.366Z,3.97
2022-10-11T14:11:16.551Z,3.80
2022-10-11T14:14:29.898Z,4.00
2022-10-11T14:17:20.925Z,3.50
2022-10-11T14:20:26.406Z,3.97
2022-10-11T14:23:19.608Z,3.90
2022-10-11T14:26:15.068Z,3.80
2022-10-11T14:29:12.668Z,3.40
2022-10-11T14:32:05.893Z,4.17
2022-10-11T14:34:54.699Z,3.30
2022-10-11T14:37:43.157Z,3.47
2022-10-11T14:40:33.430Z,3.60
2022-10-11T14:43:21.454Z,4.60
2022-10-11T14:46:19.382Z,4.00
2022-10-11T14:49:15.036Z,4.63
2022-10-11T14:52:06.626Z,4.23
2022-10-11T14:54:55.203Z,5.08
2022-10-11T14:57:43.986Z,4.00
2022-10-11T15:00:32.422Z,3.77
2022-10-11T15:03:21.299Z,3.73
2022-10-11T15:06:18.244Z,3.87
2022-10-11T15:09:07.689Z,4.13
2022-10-11T15:11:56.711Z,4.70
2022-10-11T15:14:44.681Z,3.77
2022-10-11T15:17:33.456Z,3.57
2022-10-11T15:20:26.771Z,4.27
2022-10-11T15:23:15.344Z,4.70
2022-10-11T15:26:03.938Z,4.63
2022-10-11T15:28:53.790Z,5.67
2022-10-11T15:31:46.266Z,5.47
2022-10-11T15:34:34.051Z,6.10
2022-10-11T15:37:22.000Z,4.97
2022-10-11T15:40:32.879Z,4.80
2022-10-11T15:43:24.708Z,4.80
2022-10-11T15:46:19.452Z,5.17
2022-10-11T15:49:19.457Z,5.13
2022-10-11T15:52:07.528Z,4.80
2022-10-11T15:54:55.709Z,4.50
2022-10-11T15:57:43.889Z,4.53
2022-10-11T16:00:32.141Z,4.50
2022-10-11T16:03:21.088Z,5.37
2022-10-11T16:06:10.204Z,4.90
2022-10-11T16:08:59.172Z,4.60
2022-10-11T16:11:50.466Z,4.20
2022-10-11T16:14:38.557Z,4.70
2022-10-11T16:17:26.670Z,4.63
2022-10-11T16:20:23.890Z,4.23
2022-10-11T16:23:12.907Z,4.60
2022-10-11T16:26:03.653Z,4.77
2022-10-11T16:28:52.818Z,5.03
2022-10-11T16:31:41.372Z,4.93
2022-10-11T16:34:29.488Z,4.47
2022-10-11T16:37:17.805Z,4.60
2022-10-11T16:40:08.715Z,5.23
2022-10-11T16:42:57.738Z,5.30
2022-10-11T16:45:46.045Z,5.07
2022-10-11T16:48:33.662Z,5.33
2022-10-11T16:51:23.555Z,4.57
2022-10-11T16:54:20.446Z,5.40
2022-10-11T16:57:10.503Z,4.40
2022-10-11T16:59:58.385Z,4.63
2022-10-11T17:02:46.498Z,5.30
2022-10-11T17:05:37.556Z,4.87
2022-10-11T17:08:26.269Z,6.70
2022-10-11T17:11:16.264Z,5.73
2022-10-11T17:14:06.713Z,8.60
2022-10-11T17:16:54.665Z,16.23
2022-10-11T17:19:45.220Z,21.23
2022-10-11T17:22:34.024Z,25.10
2022-10-11T17:28:55.313Z,20.77
2022-10-11T17:31:49.072Z,21.33
2022-10-11T17:34:38.232Z,19.35
2022-10-11T17:37:26.432Z,20.17
2022-10-11T17:40:15.025Z,23.63
2022-10-11T17:43:03.644Z,22.00
2022-10-11T17:45:56.359Z,18.73
2022-10-11T17:48:47.712Z,11.47
2022-10-11T17:51:36.526Z,8.40
2022-10-11T17:54:26.146Z,7.37
2022-10-11T17:57:14.361Z,7.30
2022-10-11T18:00:03.382Z,7.47
2022-10-11T18:02:53.524Z,6.60
2022-10-11T18:05:48.823Z,6.60
2022-10-11T18:08:40.627Z,6.37
2022-10-11T18:11:30.310Z,5.90
2022-10-11T18:14:21.661Z,5.90
2022-10-11T18:17:11.816Z,5.53
2022-10-11T18:20:00.005Z,5.60
2022-10-11T18:22:49.377Z,5.83
2022-10-11T18:25:37.788Z,6.07
2022-10-11T18:28:26.047Z,6.60
2022-10-11T18:31:17.134Z,6.57
2022-10-11T18:34:10.335Z,5.85
2022-10-11T18:36:59.761Z,6.33
2022-10-11T18:39:48.296Z,5.77
2022-10-11T18:42:36.344Z,6.30
2022-10-11T18:45:24.615Z,6.43
2022-10-11T18:48:12.769Z,6.67
2022-10-11T18:51:10.314Z,7.40
2022-10-11T18:53:59.315Z,6.45
2022-10-11T18:56:47.761Z,6.60
2022-10-11T18:59:35.942Z,7.80
2022-10-11T19:02:23.662Z,9.00
2022-10-11T19:05:12.077Z,9.37
2022-10-11T19:08:00.532Z,13.07
2022-10-11T19:10:48.445Z,15.95
2022-10-11T19:13:37.522Z,19.20
2022-10-11T19:16:27.242Z,20.80
2022-10-11T19:19:15.754Z,23.20
2022-10-11T19:22:04.229Z,24.77
2022-10-11T19:24:52.104Z,23.20
2022-10-11T19:27:40.430Z,21.30
2022-10-11T19:30:31.376Z,18.03
2022-10-11T19:33:19.584Z,14.23
2022-10-11T19:36:11.127Z,9.07
2022-10-11T19:38:59.752Z,7.53
2022-10-11T19:41:48.482Z,6.90
2022-10-11T19:44:39.560Z,6.80
2022-10-11T19:47:29.301Z,6.63
2022-10-11T19:50:17.943Z,6.40
2022-10-11T19:53:06.977Z,7.20
2022-10-11T19:55:54.978Z,6.33
2022-10-11T19:58:44.876Z,6.20
2022-10-11T20:01:33.688Z,6.25
2022-10-11T20:07:31.023Z,5.75
2022-10-11T20:10:20.659Z,5.60
2022-10-11T20:13:11.372Z,5.97
2022-10-11T20:16:02.603Z,6.40
2022-10-11T20:18:51.890Z,5.70
2022-10-11T20:21:41.606Z,6.33
2022-10-11T20:24:33.141Z,5.83
2022-10-11T20:27:22.570Z,6.40
2022-10-11T20:30:14.356Z,6.67
2022-10-11T20:33:02.170Z,6.40
2022-10-11T20:35:59.292Z,6.73
2022-10-11T20:38:48.651Z,6.20
2022-10-11T20:41:39.417Z,6.07
2022-10-11T20:44:27.420Z,6.77
2022-10-11T20:47:16.383Z,5.97
2022-10-11T20:50:06.510Z,6.87
2022-10-11T20:52:55.312Z,6.80
2022-10-11T20:55:45.736Z,6.60
2022-10-11T20:58:34.052Z,5.97
2022-10-11T21:01:25.422Z,6.03
2022-10-11T21:04:19.104Z,6.30
2022-10-11T21:07:07.158Z,6.27
2022-10-11T21:09:55.622Z,6.20
2022-10-11T21:12:44.901Z,6.07
2022-10-11T21:15:34.791Z,6.03
2022-10-11T21:18:23.332Z,5.77
2022-10-11T21:21:13.315Z,5.60
2022-10-11T21:24:02.587Z,6.17
2022-10-11T21:26:50.632Z,5.60
2022-10-11T21:29:38.802Z,6.70
2022-10-11T21:32:29.301Z,6.50
2022-10-11T21:35:17.793Z,6.70
2022-10-11T21:38:05.795Z,6.57
2022-10-11T21:41:00.182Z,7.10
2022-10-11T21:43:56.284Z,6.80
2022-10-11T21:47:05.909Z,6.10
2022-10-11T21:50:00.546Z,6.93
2022-10-11T21:52:53.335Z,6.83
2022-10-11T21:58:37.291Z,6.97
2022-10-11T22:01:29.454Z,6.20
2022-10-11T22:10:08.125Z,7.53
2022-10-11T22:12:56.623Z,7.63
2022-10-11T22:15:44.928Z,7.37
2022-10-11T22:18:33.761Z,7.33
2022-10-11T22:21:26.822Z,8.23
2022-10-11T22:24:16.100Z,7.70
2022-10-11T22:27:04.431Z,8.00
2022-10-11T22:29:52.438Z,7.63
2022-10-11T22:32:40.479Z,8.40
2022-10-11T22:35:31.357Z,8.30
2022-10-11T22:38:21.885Z,8.50
2022-10-11T22:41:10.947Z,9.33
2022-10-11T22:43:59.142Z,14.23
2022-10-11T22:46:47.041Z,16.97
2022-10-11T22:49:35.692Z,22.37
2022-10-11T22:52:24.089Z,26.43
2022-10-11T22:55:16.235Z,26.93
2022-10-11T22:58:07.744Z,26.50
2022-10-11T23:00:55.735Z,24.87
2022-10-11T23:03:47.201Z,22.97
2022-10-11T23:06:38.506Z,19.03
2022-10-11T23:09:28.478Z,15.17
2022-10-11T23:12:16.438Z,14.20
2022-10-11T23:15:06.242Z,13.00
2022-10-11T23:17:55.132Z,11.07
2022-10-11T23:20:43.522Z,10.07
2022-10-11T23:23:33.186Z,10.27
2022-10-11T23:26:23.981Z,9.57
2022-10-11T23:29:12.043Z,9.70
2022-10-11T23:32:00.122Z,10.33
2022-10-11T23:34:48.028Z,10.20
2022-10-11T23:37:36.639Z,9.40
2022-10-11T23:40:24.997Z,9.60
2022-10-11T23:43:13.111Z,9.03
2022-10-11T23:46:01.287Z,9.43
2022-10-11T23:48:49.534Z,10.50
2022-10-11T23:51:37.834Z,9.87
2022-10-11T23:54:26.308Z,9.07
2022-10-11T23:57:14.411Z,9.93
